sensor_id;sensor_type;location;lat;lon;timestamp;P1;durP1;ratioP1;P2;durP2;ratioP2
15192;SDS011;7697;51.630;7.484;2022-12-29T00:02:01;4.05;;;1.20;;
15192;SDS011;7697;51.630;7.484;2022-12-29T00:07:05;1.15;;;1.05;;
15192;SDS011;7697;51.630;7.484;2022-12-29T00:12:10;2.22;;;1.30;;
15192;SDS011;7697;51.630;7.484;2022-12-29T00:17:12;1.30;;;1.20;;
15192;SDS011;7697;51.630;7.484;2022-12-29T00:22:16;2.17;;;1.38;;
15192;SDS011;7697;51.630;7.484;2022-12-29T00:27:35;1.42;;;1.20;;
15192;SDS011;7697;51.630;7.484;2022-12-29T00:32:55;1.92;;;1.27;;
15192;SDS011;7697;51.630;7.484;2022-12-29T00:38:16;1.33;;;1.23;;
15192;SDS011;7697;51.630;7.484;2022-12-29T00:43:35;1.92;;;1.60;;
15192;SDS011;7697;51.630;7.484;2022-12-29T00:48:55;1.60;;;1.20;;
15192;SDS011;7697;51.630;7.484;2022-12-29T00:54:20;1.20;;;1.10;;
15192;SDS011;7697;51.630;7.484;2022-12-29T00:59:22;1.10;;;1.00;;
15192;SDS011;7697;51.630;7.484;2022-12-29T01:04:25;1.17;;;0.90;;
15192;SDS011;7697;51.630;7.484;2022-12-29T01:09:31;0.90;;;0.90;;
15192;SDS011;7697;51.630;7.484;2022-12-29T01:14:51;3.17;;;0.90;;
15192;SDS011;7697;51.630;7.484;2022-12-29T01:19:52;0.90;;;0.90;;
15192;SDS011;7697;51.630;7.484;2022-12-29T01:24:58;1.20;;;1.00;;
15192;SDS011;7697;51.630;7.484;2022-12-29T01:29:59;0.90;;;0.90;;
15192;SDS011;7697;51.630;7.484;2022-12-29T01:35:01;0.85;;;0.85;;
15192;SDS011;7697;51.630;7.484;2022-12-29T01:40:05;0.70;;;0.70;;
15192;SDS011;7697;51.630;7.484;2022-12-29T01:45:08;0.65;;;0.65;;
15192;SDS011;7697;51.630;7.484;2022-12-29T01:50:12;0.85;;;0.85;;
15192;SDS011;7697;51.630;7.484;2022-12-29T01:55:21;0.75;;;0.73;;
15192;SDS011;7697;51.630;7.484;2022-12-29T02:00:24;0.80;;;0.80;;
15192;SDS011;7697;51.630;7.484;2022-12-29T02:05:27;0.70;;;0.70;;
15192;SDS011;7697;51.630;7.484;2022-12-29T02:10:37;1.27;;;0.95;;
15192;SDS011;7697;51.630;7.484;2022-12-29T02:15:42;2.20;;;1.20;;
15192;SDS011;7697;51.630;7.484;2022-12-29T02:26:49;0.77;;;0.77;;
15192;SDS011;7697;51.630;7.484;2022-12-29T02:32:17;1.40;;;1.00;;
15192;SDS011;7697;51.630;7.484;2022-12-29T02:37:30;2.15;;;1.10;;
15192;SDS011;7697;51.630;7.484;2022-12-29T02:42:43;2.17;;;1.50;;
15192;SDS011;7697;51.630;7.484;2022-12-29T02:47:55;1.63;;;1.50;;
15192;SDS011;7697;51.630;7.484;2022-12-29T02:53:09;1.80;;;1.45;;
15192;SDS011;7697;51.630;7.484;2022-12-29T02:58:18;2.90;;;2.00;;
15192;SDS011;7697;51.630;7.484;2022-12-29T03:03:25;5.18;;;1.60;;
15192;SDS011;7697;51.630;7.484;2022-12-29T03:08:42;2.70;;;1.60;;
15192;SDS011;7697;51.630;7.484;2022-12-29T03:13:49;2.47;;;1.90;;
15192;SDS011;7697;51.630;7.484;2022-12-29T03:19:18;2.25;;;1.60;;
15192;SDS011;7697;51.630;7.484;2022-12-29T03:24:25;1.77;;;1.60;;
15192;SDS011;7697;51.630;7.484;2022-12-29T03:29:30;2.28;;;1.40;;
15192;SDS011;7697;51.630;7.484;2022-12-29T03:34:39;2.97;;;1.10;;
15192;SDS011;7697;51.630;7.484;2022-12-29T03:39:41;3.22;;;1.58;;
15192;SDS011;7697;51.630;7.484;2022-12-29T03:44:44;2.80;;;2.00;;
15192;SDS011;7697;51.630;7.484;2022-12-29T03:49:48;3.25;;;1.70;;
15192;SDS011;7697;51.630;7.484;2022-12-29T03:54:50;3.40;;;1.58;;
15192;SDS011;7697;51.630;7.484;2022-12-29T03:59:52;1.70;;;1.40;;
15192;SDS011;7697;51.630;7.484;2022-12-29T04:05:01;2.00;;;1.17;;
15192;SDS011;7697;51.630;7.484;2022-12-29T04:10:03;1.23;;;0.80;;
15192;SDS011;7697;51.630;7.484;2022-12-29T04:15:06;1.30;;;0.73;;
15192;SDS011;7697;51.630;7.484;2022-12-29T04:20:11;1.90;;;1.23;;
15192;SDS011;7697;51.630;7.484;2022-12-29T04:25:30;2.75;;;0.90;;
15192;SDS011;7697;51.630;7.484;2022-12-29T04:30:32;1.15;;;0.82;;
15192;SDS011;7697;51.630;7.484;2022-12-29T04:35:36;0.75;;;0.70;;
15192;SDS011;7697;51.630;7.484;2022-12-29T04:40:38;1.88;;;0.88;;
15192;SDS011;7697;51.630;7.484;2022-12-29T04:45:42;1.55;;;0.80;;
15192;SDS011;7697;51.630;7.484;2022-12-29T04:50:46;1.25;;;0.80;;
15192;SDS011;7697;51.630;7.484;2022-12-29T04:55:49;1.23;;;0.90;;
15192;SDS011;7697;51.630;7.484;2022-12-29T05:00:52;1.00;;;0.90;;
15192;SDS011;7697;51.630;7.484;2022-12-29T05:05:55;1.58;;;0.98;;
15192;SDS011;7697;51.630;7.484;2022-12-29T05:10:58;1.08;;;0.98;;
15192;SDS011;7697;51.630;7.484;2022-12-29T05:16:05;1.63;;;1.33;;
15192;SDS011;7697;51.630;7.484;2022-12-29T05:21:08;1.70;;;1.40;;
15192;SDS011;7697;51.630;7.484;2022-12-29T05:26:10;1.52;;;1.27;;
15192;SDS011;7697;51.630;7.484;2022-12-29T05:31:12;1.23;;;0.95;;
15192;SDS011;7697;51.630;7.484;2022-12-29T05:36:18;0.80;;;0.80;;
15192;SDS011;7697;51.630;7.484;2022-12-29T05:41:30;2.92;;;1.40;;
15192;SDS011;7697;51.630;7.484;2022-12-29T05:46:32;3.10;;;1.15;;
15192;SDS011;7697;51.630;7.484;2022-12-29T05:51:35;2.65;;;1.25;;
15192;SDS011;7697;51.630;7.484;2022-12-29T05:56:37;3.50;;;1.30;;
15192;SDS011;7697;51.630;7.484;2022-12-29T06:01:38;1.75;;;1.20;;
15192;SDS011;7697;51.630;7.484;2022-12-29T06:06:43;3.80;;;1.52;;
15192;SDS011;7697;51.630;7.484;2022-12-29T06:11:45;5.95;;;1.85;;
15192;SDS011;7697;51.630;7.484;2022-12-29T06:16:47;5.63;;;1.88;;
15192;SDS011;7697;51.630;7.484;2022-12-29T06:21:50;2.15;;;1.40;;
15192;SDS011;7697;51.630;7.484;2022-12-29T06:26:52;2.10;;;1.00;;
15192;SDS011;7697;51.630;7.484;2022-12-29T06:31:54;2.65;;;1.30;;
15192;SDS011;7697;51.630;7.484;2022-12-29T06:36:59;5.03;;;1.73;;
15192;SDS011;7697;51.630;7.484;2022-12-29T06:42:01;1.30;;;1.00;;
15192;SDS011;7697;51.630;7.484;2022-12-29T06:47:03;3.55;;;1.30;;
15192;SDS011;7697;51.630;7.484;2022-12-29T06:52:08;3.17;;;1.40;;
15192;SDS011;7697;51.630;7.484;2022-12-29T06:57:10;5.32;;;1.90;;
15192;SDS011;7697;51.630;7.484;2022-12-29T07:02:11;1.58;;;1.25;;
15192;SDS011;7697;51.630;7.484;2022-12-29T07:07:15;3.25;;;1.60;;
15192;SDS011;7697;51.630;7.484;2022-12-29T07:12:17;2.08;;;1.30;;
15192;SDS011;7697;51.630;7.484;2022-12-29T07:17:19;4.07;;;1.58;;
15192;SDS011;7697;51.630;7.484;2022-12-29T07:22:25;3.58;;;1.50;;
15192;SDS011;7697;51.630;7.484;2022-12-29T07:27:26;2.70;;;1.70;;
15192;SDS011;7697;51.630;7.484;2022-12-29T07:32:28;2.67;;;1.63;;
15192;SDS011;7697;51.630;7.484;2022-12-29T07:37:35;3.70;;;1.30;;
15192;SDS011;7697;51.630;7.484;2022-12-29T07:42:37;2.60;;;1.50;;
15192;SDS011;7697;51.630;7.484;2022-12-29T07:47:38;3.97;;;1.55;;
15192;SDS011;7697;51.630;7.484;2022-12-29T07:52:41;1.50;;;0.90;;
15192;SDS011;7697;51.630;7.484;2022-12-29T07:57:45;3.08;;;1.63;;
15192;SDS011;7697;51.630;7.484;2022-12-29T08:02:47;6.78;;;1.63;;
15192;SDS011;7697;51.630;7.484;2022-12-29T08:07:50;5.97;;;1.98;;
15192;SDS011;7697;51.630;7.484;2022-12-29T08:12:52;5.45;;;2.20;;
15192;SDS011;7697;51.630;7.484;2022-12-29T08:17:54;4.35;;;2.20;;
15192;SDS011;7697;51.630;7.484;2022-12-29T08:22:57;5.07;;;1.75;;
15192;SDS011;7697;51.630;7.484;2022-12-29T08:27:59;11.23;;;2.80;;
15192;SDS011;7697;51.630;7.484;2022-12-29T08:33:01;4.75;;;2.20;;
15192;SDS011;7697;51.630;7.484;2022-12-29T08:38:04;3.88;;;1.58;;
15192;SDS011;7697;51.630;7.484;2022-12-29T08:43:15;3.30;;;1.83;;
15192;SDS011;7697;51.630;7.484;2022-12-29T08:48:17;6.22;;;2.65;;
15192;SDS011;7697;51.630;7.484;2022-12-29T08:53:23;5.97;;;3.05;;
15192;SDS011;7697;51.630;7.484;2022-12-29T08:58:28;3.75;;;1.67;;
15192;SDS011;7697;51.630;7.484;2022-12-29T09:03:32;9.32;;;3.53;;
15192;SDS011;7697;51.630;7.484;2022-12-29T09:08:36;5.07;;;1.67;;
15192;SDS011;7697;51.630;7.484;2022-12-29T09:13:37;3.78;;;2.00;;
15192;SDS011;7697;51.630;7.484;2022-12-29T09:18:39;7.90;;;2.50;;
15192;SDS011;7697;51.630;7.484;2022-12-29T09:23:43;4.80;;;2.10;;
15192;SDS011;7697;51.630;7.484;2022-12-29T09:28:45;9.35;;;3.20;;
15192;SDS011;7697;51.630;7.484;2022-12-29T09:33:49;5.43;;;2.10;;
15192;SDS011;7697;51.630;7.484;2022-12-29T09:38:53;4.57;;;2.05;;
15192;SDS011;7697;51.630;7.484;2022-12-29T09:44:01;5.18;;;2.20;;
15192;SDS011;7697;51.630;7.484;2022-12-29T09:49:11;7.45;;;2.53;;
15192;SDS011;7697;51.630;7.484;2022-12-29T09:54:40;5.80;;;2.15;;
15192;SDS011;7697;51.630;7.484;2022-12-29T09:59:47;7.03;;;1.75;;
15192;SDS011;7697;51.630;7.484;2022-12-29T10:04:52;6.07;;;2.05;;
15192;SDS011;7697;51.630;7.484;2022-12-29T10:09:56;6.50;;;1.83;;
15192;SDS011;7697;51.630;7.484;2022-12-29T10:15:12;5.82;;;2.00;;
15192;SDS011;7697;51.630;7.484;2022-12-29T10:20:32;6.70;;;1.70;;
15192;SDS011;7697;51.630;7.484;2022-12-29T10:25:41;4.85;;;1.65;;
15192;SDS011;7697;51.630;7.484;2022-12-29T10:30:50;6.55;;;1.98;;
15192;SDS011;7697;51.630;7.484;2022-12-29T10:35:53;3.92;;;1.45;;
15192;SDS011;7697;51.630;7.484;2022-12-29T10:40:58;7.88;;;2.20;;
15192;SDS011;7697;51.630;7.484;2022-12-29T10:46:04;6.70;;;1.65;;
15192;SDS011;7697;51.630;7.484;2022-12-29T10:51:09;5.63;;;1.60;;
15192;SDS011;7697;51.630;7.484;2022-12-29T10:56:14;5.78;;;2.33;;
15192;SDS011;7697;51.630;7.484;2022-12-29T11:01:25;4.72;;;1.83;;
15192;SDS011;7697;51.630;7.484;2022-12-29T11:06:38;3.97;;;1.60;;
15192;SDS011;7697;51.630;7.484;2022-12-29T11:11:41;4.13;;;1.63;;
15192;SDS011;7697;51.630;7.484;2022-12-29T11:16:43;3.97;;;1.80;;
15192;SDS011;7697;51.630;7.484;2022-12-29T11:21:45;5.03;;;2.10;;
15192;SDS011;7697;51.630;7.484;2022-12-29T11:26:48;4.90;;;1.88;;
15192;SDS011;7697;51.630;7.484;2022-12-29T11:31:58;6.03;;;2.95;;
15192;SDS011;7697;51.630;7.484;2022-12-29T11:37:01;5.97;;;2.20;;
15192;SDS011;7697;51.630;7.484;2022-12-29T11:42:11;6.18;;;2.00;;
15192;SDS011;7697;51.630;7.484;2022-12-29T11:47:23;7.40;;;2.50;;
15192;SDS011;7697;51.630;7.484;2022-12-29T11:52:31;3.72;;;1.60;;
15192;SDS011;7697;51.630;7.484;2022-12-29T11:57:40;4.85;;;2.08;;
15192;SDS011;7697;51.630;7.484;2022-12-29T12:02:45;5.90;;;2.13;;
15192;SDS011;7697;51.630;7.484;2022-12-29T12:07:53;5.50;;;2.00;;
15192;SDS011;7697;51.630;7.484;2022-12-29T12:13:02;6.75;;;2.42;;
15192;SDS011;7697;51.630;7.484;2022-12-29T12:18:17;9.20;;;2.72;;
15192;SDS011;7697;51.630;7.484;2022-12-29T12:23:35;7.90;;;3.15;;
15192;SDS011;7697;51.630;7.484;2022-12-29T12:28:48;6.43;;;2.00;;
15192;SDS011;7697;51.630;7.484;2022-12-29T12:33:55;4.97;;;1.90;;
15192;SDS011;7697;51.630;7.484;2022-12-29T12:39:05;4.32;;;1.80;;
15192;SDS011;7697;51.630;7.484;2022-12-29T12:44:15;8.38;;;2.97;;
15192;SDS011;7697;51.630;7.484;2022-12-29T12:49:27;3.90;;;2.10;;
15192;SDS011;7697;51.630;7.484;2022-12-29T12:54:43;6.70;;;1.98;;
15192;SDS011;7697;51.630;7.484;2022-12-29T13:00:00;4.85;;;2.20;;
15192;SDS011;7697;51.630;7.484;2022-12-29T13:05:20;5.47;;;2.70;;
15192;SDS011;7697;51.630;7.484;2022-12-29T13:10:41;8.73;;;2.75;;
15192;SDS011;7697;51.630;7.484;2022-12-29T13:15:46;4.78;;;2.35;;
15192;SDS011;7697;51.630;7.484;2022-12-29T13:20:57;5.22;;;1.90;;
15192;SDS011;7697;51.630;7.484;2022-12-29T13:26:08;4.57;;;1.90;;
15192;SDS011;7697;51.630;7.484;2022-12-29T13:31:20;5.90;;;2.17;;
15192;SDS011;7697;51.630;7.484;2022-12-29T13:36:35;6.20;;;2.20;;
15192;SDS011;7697;51.630;7.484;2022-12-29T13:41:44;3.92;;;1.45;;
15192;SDS011;7697;51.630;7.484;2022-12-29T13:46:51;7.57;;;2.58;;
15192;SDS011;7697;51.630;7.484;2022-12-29T13:51:59;5.57;;;2.10;;
15192;SDS011;7697;51.630;7.484;2022-12-29T13:57:13;4.68;;;1.80;;
15192;SDS011;7697;51.630;7.484;2022-12-29T14:02:25;4.32;;;1.70;;
15192;SDS011;7697;51.630;7.484;2022-12-29T14:07:35;4.68;;;1.80;;
15192;SDS011;7697;51.630;7.484;2022-12-29T14:12:41;3.40;;;1.65;;
15192;SDS011;7697;51.630;7.484;2022-12-29T14:23:25;6.85;;;1.90;;
15192;SDS011;7697;51.630;7.484;2022-12-29T14:28:31;4.18;;;2.00;;
15192;SDS011;7697;51.630;7.484;2022-12-29T14:33:35;4.68;;;2.20;;
15192;SDS011;7697;51.630;7.484;2022-12-29T14:38:37;6.45;;;2.03;;
15192;SDS011;7697;51.630;7.484;2022-12-29T14:43:53;6.10;;;2.65;;
15192;SDS011;7697;51.630;7.484;2022-12-29T14:48:59;6.00;;;2.22;;
15192;SDS011;7697;51.630;7.484;2022-12-29T14:54:01;6.10;;;2.45;;
15192;SDS011;7697;51.630;7.484;2022-12-29T14:59:52;9.07;;;2.25;;
15192;SDS011;7697;51.630;7.484;2022-12-29T15:05:00;5.55;;;2.55;;
15192;SDS011;7697;51.630;7.484;2022-12-29T15:10:07;7.95;;;2.45;;
15192;SDS011;7697;51.630;7.484;2022-12-29T15:15:19;7.22;;;2.45;;
15192;SDS011;7697;51.630;7.484;2022-12-29T15:20:24;4.68;;;1.98;;
15192;SDS011;7697;51.630;7.484;2022-12-29T15:25:29;7.47;;;2.30;;
15192;SDS011;7697;51.630;7.484;2022-12-29T15:30:42;4.72;;;1.98;;
15192;SDS011;7697;51.630;7.484;2022-12-29T15:35:52;5.30;;;1.52;;
15192;SDS011;7697;51.630;7.484;2022-12-29T15:40:57;3.55;;;1.42;;
15192;SDS011;7697;51.630;7.484;2022-12-29T15:46:05;7.13;;;2.60;;
15192;SDS011;7697;51.630;7.484;2022-12-29T15:51:11;6.40;;;2.03;;
15192;SDS011;7697;51.630;7.484;2022-12-29T15:56:21;5.18;;;2.10;;
15192;SDS011;7697;51.630;7.484;2022-12-29T16:01:27;7.45;;;3.20;;
15192;SDS011;7697;51.630;7.484;2022-12-29T16:06:32;5.07;;;2.33;;
15192;SDS011;7697;51.630;7.484;2022-12-29T16:11:37;3.92;;;1.88;;
15192;SDS011;7697;51.630;7.484;2022-12-29T16:16:42;4.55;;;1.92;;
15192;SDS011;7697;51.630;7.484;2022-12-29T16:21:45;7.95;;;2.88;;
15192;SDS011;7697;51.630;7.484;2022-12-29T16:26:51;5.60;;;1.67;;
15192;SDS011;7697;51.630;7.484;2022-12-29T16:31:57;5.95;;;2.63;;
15192;SDS011;7697;51.630;7.484;2022-12-29T16:37:03;7.07;;;1.85;;
15192;SDS011;7697;51.630;7.484;2022-12-29T16:47:37;6.15;;;2.50;;
15192;SDS011;7697;51.630;7.484;2022-12-29T16:52:39;7.05;;;2.65;;
15192;SDS011;7697;51.630;7.484;2022-12-29T16:57:42;8.13;;;2.78;;
15192;SDS011;7697;51.630;7.484;2022-12-29T17:02:45;6.30;;;2.50;;
15192;SDS011;7697;51.630;7.484;2022-12-29T17:07:50;6.72;;;2.38;;
15192;SDS011;7697;51.630;7.484;2022-12-29T17:12:54;7.07;;;2.63;;
15192;SDS011;7697;51.630;7.484;2022-12-29T17:17:56;6.53;;;2.63;;
15192;SDS011;7697;51.630;7.484;2022-12-29T17:22:57;4.85;;;1.92;;
15192;SDS011;7697;51.630;7.484;2022-12-29T17:28:01;4.78;;;2.03;;
15192;SDS011;7697;51.630;7.484;2022-12-29T17:33:06;7.68;;;3.22;;
15192;SDS011;7697;51.630;7.484;2022-12-29T17:38:16;11.93;;;2.15;;
15192;SDS011;7697;51.630;7.484;2022-12-29T17:43:20;1.05;;;0.80;;
15192;SDS011;7697;51.630;7.484;2022-12-29T17:48:24;1.55;;;1.20;;
15192;SDS011;7697;51.630;7.484;2022-12-29T17:53:27;2.72;;;1.00;;
15192;SDS011;7697;51.630;7.484;2022-12-29T17:58:33;4.10;;;1.35;;
15192;SDS011;7697;51.630;7.484;2022-12-29T18:03:38;2.85;;;1.40;;
15192;SDS011;7697;51.630;7.484;2022-12-29T18:08:43;11.32;;;2.80;;
15192;SDS011;7697;51.630;7.484;2022-12-29T18:13:47;6.38;;;2.75;;
15192;SDS011;7697;51.630;7.484;2022-12-29T18:18:49;7.00;;;2.33;;
15192;SDS011;7697;51.630;7.484;2022-12-29T18:23:50;2.05;;;1.38;;
15192;SDS011;7697;51.630;7.484;2022-12-29T18:28:55;13.10;;;3.95;;
15192;SDS011;7697;51.630;7.484;2022-12-29T18:34:01;5.78;;;2.13;;
15192;SDS011;7697;51.630;7.484;2022-12-29T18:39:08;6.55;;;2.00;;
15192;SDS011;7697;51.630;7.484;2022-12-29T18:44:15;6.97;;;1.98;;
15192;SDS011;7697;51.630;7.484;2022-12-29T18:49:16;3.50;;;1.67;;
15192;SDS011;7697;51.630;7.484;2022-12-29T18:54:21;2.70;;;1.75;;
15192;SDS011;7697;51.630;7.484;2022-12-29T18:59:28;5.03;;;2.38;;
15192;SDS011;7697;51.630;7.484;2022-12-29T19:04:30;6.43;;;3.72;;
15192;SDS011;7697;51.630;7.484;2022-12-29T19:09:32;8.02;;;3.17;;
15192;SDS011;7697;51.630;7.484;2022-12-29T19:14:35;8.02;;;2.75;;
15192;SDS011;7697;51.630;7.484;2022-12-29T19:19:36;5.57;;;2.28;;
15192;SDS011;7697;51.630;7.484;2022-12-29T19:24:38;6.35;;;2.35;;
15192;SDS011;7697;51.630;7.484;2022-12-29T19:29:46;12.32;;;2.65;;
15192;SDS011;7697;51.630;7.484;2022-12-29T19:34:48;9.25;;;3.00;;
15192;SDS011;7697;51.630;7.484;2022-12-29T19:39:50;6.07;;;2.42;;
15192;SDS011;7697;51.630;7.484;2022-12-29T19:44:53;7.38;;;2.40;;
15192;SDS011;7697;51.630;7.484;2022-12-29T19:49:55;6.60;;;2.65;;
15192;SDS011;7697;51.630;7.484;2022-12-29T19:54:57;13.23;;;3.35;;
15192;SDS011;7697;51.630;7.484;2022-12-29T20:00:01;11.02;;;2.75;;
15192;SDS011;7697;51.630;7.484;2022-12-29T20:05:03;13.48;;;3.47;;
15192;SDS011;7697;51.630;7.484;2022-12-29T20:10:06;8.43;;;3.05;;
15192;SDS011;7697;51.630;7.484;2022-12-29T20:15:10;14.55;;;4.00;;
15192;SDS011;7697;51.630;7.484;2022-12-29T20:20:14;11.35;;;4.00;;
15192;SDS011;7697;51.630;7.484;2022-12-29T20:25:16;16.58;;;4.85;;
15192;SDS011;7697;51.630;7.484;2022-12-29T20:30:20;10.95;;;3.78;;
15192;SDS011;7697;51.630;7.484;2022-12-29T20:35:24;9.55;;;3.15;;
15192;SDS011;7697;51.630;7.484;2022-12-29T20:40:25;14.13;;;3.72;;
15192;SDS011;7697;51.630;7.484;2022-12-29T20:45:29;9.85;;;3.60;;
15192;SDS011;7697;51.630;7.484;2022-12-29T20:50:30;10.52;;;3.63;;
15192;SDS011;7697;51.630;7.484;2022-12-29T20:55:35;13.50;;;3.80;;
15192;SDS011;7697;51.630;7.484;2022-12-29T21:00:39;11.45;;;3.80;;
15192;SDS011;7697;51.630;7.484;2022-12-29T21:05:43;7.03;;;2.63;;
15192;SDS011;7697;51.630;7.484;2022-12-29T21:10:45;12.38;;;3.13;;
15192;SDS011;7697;51.630;7.484;2022-12-29T21:15:53;11.98;;;3.40;;
15192;SDS011;7697;51.630;7.484;2022-12-29T21:20:56;13.60;;;3.53;;
15192;SDS011;7697;51.630;7.484;2022-12-29T21:25:59;9.00;;;3.42;;
15192;SDS011;7697;51.630;7.484;2022-12-29T21:31:07;8.68;;;3.00;;
15192;SDS011;7697;51.630;7.484;2022-12-29T21:36:09;12.02;;;2.95;;
15192;SDS011;7697;51.630;7.484;2022-12-29T21:41:12;10.05;;;3.40;;
15192;SDS011;7697;51.630;7.484;2022-12-29T21:46:17;10.63;;;3.92;;
15192;SDS011;7697;51.630;7.484;2022-12-29T21:51:21;15.68;;;4.20;;
15192;SDS011;7697;51.630;7.484;2022-12-29T21:56:44;11.40;;;3.70;;
15192;SDS011;7697;51.630;7.484;2022-12-29T22:01:48;11.50;;;3.47;;
15192;SDS011;7697;51.630;7.484;2022-12-29T22:07:07;11.05;;;2.85;;
15192;SDS011;7697;51.630;7.484;2022-12-29T22:12:28;9.38;;;2.80;;
15192;SDS011;7697;51.630;7.484;2022-12-29T22:17:50;7.88;;;3.03;;
15192;SDS011;7697;51.630;7.484;2022-12-29T22:22:53;6.95;;;2.90;;
15192;SDS011;7697;51.630;7.484;2022-12-29T22:27:55;6.45;;;2.25;;
15192;SDS011;7697;51.630;7.484;2022-12-29T22:33:04;10.85;;;3.60;;
15192;SDS011;7697;51.630;7.484;2022-12-29T22:38:07;11.38;;;2.90;;
15192;SDS011;7697;51.630;7.484;2022-12-29T22:43:08;13.98;;;3.00;;
15192;SDS011;7697;51.630;7.484;2022-12-29T22:48:12;13.05;;;3.45;;
15192;SDS011;7697;51.630;7.484;2022-12-29T22:53:15;10.18;;;3.20;;
15192;SDS011;7697;51.630;7.484;2022-12-29T22:58:17;9.55;;;2.80;;
15192;SDS011;7697;51.630;7.484;2022-12-29T23:03:25;11.20;;;2.72;;
15192;SDS011;7697;51.630;7.484;2022-12-29T23:08:29;11.52;;;2.75;;
15192;SDS011;7697;51.630;7.484;2022-12-29T23:13:33;16.35;;;4.35;;
15192;SDS011;7697;51.630;7.484;2022-12-29T23:18:41;12.25;;;3.15;;
15192;SDS011;7697;51.630;7.484;2022-12-29T23:23:47;8.13;;;2.65;;
15192;SDS011;7697;51.630;7.484;2022-12-29T23:28:56;13.70;;;3.20;;
15192;SDS011;7697;51.630;7.484;2022-12-29T23:34:01;12.07;;;3.55;;
15192;SDS011;7697;51.630;7.484;2022-12-29T23:39:04;12.77;;;2.92;;
15192;SDS011;7697;51.630;7.484;2022-12-29T23:44:10;10.80;;;3.20;;
15192;SDS011;7697;51.630;7.484;2022-12-29T23:49:16;8.18;;;2.92;;
15192;SDS011;7697;51.630;7.484;2022-12-29T23:54:20;11.63;;;3.50;;
15192;SDS011;7697;51.630;7.484;2022-12-29T23:59:24;10.10;;;3.13;;
